sensor_id;sensor_type;location;lat;lon;timestamp;P1;durP1;ratioP1;P2;durP2;ratioP2
63784;SDS011;49927;48.146;11.420;2023-11-21T00:01:11;10.40;;;3.03;;
63784;SDS011;49927;48.146;11.420;2023-11-21T00:03:38;11.77;;;3.17;;
63784;SDS011;49927;48.146;11.420;2023-11-21T00:06:05;8.88;;;2.80;;
63784;SDS011;49927;48.146;11.420;2023-11-21T00:08:34;11.80;;;2.80;;
63784;SDS011;49927;48.146;11.420;2023-11-21T00:11:01;10.85;;;2.67;;
63784;SDS011;49927;48.146;11.420;2023-11-21T00:13:28;8.07;;;2.65;;
63784;SDS011;49927;48.146;11.420;2023-11-21T00:15:55;13.35;;;2.60;;
63784;SDS011;49927;48.146;11.420;2023-11-21T00:18:22;8.50;;;2.00;;
63784;SDS011;49927;48.146;11.420;2023-11-21T00:20:48;6.72;;;2.10;;
63784;SDS011;49927;48.146;11.420;2023-11-21T00:23:15;6.25;;;2.05;;
63784;SDS011;49927;48.146;11.420;2023-11-21T00:25:43;9.20;;;2.50;;
63784;SDS011;49927;48.146;11.420;2023-11-21T00:28:10;7.07;;;1.65;;
63784;SDS011;49927;48.146;11.420;2023-11-21T00:30:37;7.82;;;1.75;;
63784;SDS011;49927;48.146;11.420;2023-11-21T00:33:03;7.85;;;1.83;;
63784;SDS011;49927;48.146;11.420;2023-11-21T00:35:30;5.78;;;1.80;;
63784;SDS011;49927;48.146;11.420;2023-11-21T00:37:57;7.85;;;2.00;;
63784;SDS011;49927;48.146;11.420;2023-11-21T00:40:24;10.90;;;2.42;;
63784;SDS011;49927;48.146;11.420;2023-11-21T00:42:52;7.00;;;2.03;;
63784;SDS011;49927;48.146;11.420;2023-11-21T00:45:19;6.53;;;1.90;;
63784;SDS011;49927;48.146;11.420;2023-11-21T00:47:45;8.52;;;2.63;;
63784;SDS011;49927;48.146;11.420;2023-11-21T00:50:12;7.07;;;1.90;;
63784;SDS011;49927;48.146;11.420;2023-11-21T00:52:39;7.37;;;2.23;;
63784;SDS011;49927;48.146;11.420;2023-11-21T00:55:06;9.55;;;2.22;;
63784;SDS011;49927;48.146;11.420;2023-11-21T00:57:33;7.72;;;1.85;;
63784;SDS011;49927;48.146;11.420;2023-11-21T01:00:01;5.90;;;2.00;;
63784;SDS011;49927;48.146;11.420;2023-11-21T01:02:28;8.50;;;2.00;;
63784;SDS011;49927;48.146;11.420;2023-11-21T01:04:55;9.07;;;2.22;;
63784;SDS011;49927;48.146;11.420;2023-11-21T01:07:22;10.20;;;2.55;;
63784;SDS011;49927;48.146;11.420;2023-11-21T01:09:49;7.07;;;2.75;;
63784;SDS011;49927;48.146;11.420;2023-11-21T01:12:15;8.55;;;2.65;;
63784;SDS011;49927;48.146;11.420;2023-11-21T01:14:42;10.65;;;4.07;;
63784;SDS011;49927;48.146;11.420;2023-11-21T01:17:10;11.40;;;2.60;;
63784;SDS011;49927;48.146;11.420;2023-11-21T01:19:37;10.13;;;2.80;;
63784;SDS011;49927;48.146;11.420;2023-11-21T01:22:04;10.13;;;3.00;;
63784;SDS011;49927;48.146;11.420;2023-11-21T01:24:31;9.45;;;2.47;;
63784;SDS011;49927;48.146;11.420;2023-11-21T01:26:57;7.03;;;2.60;;
63784;SDS011;49927;48.146;11.420;2023-11-21T01:29:24;8.85;;;2.72;;
63784;SDS011;49927;48.146;11.420;2023-11-21T01:31:51;10.00;;;3.00;;
63784;SDS011;49927;48.146;11.420;2023-11-21T01:34:19;9.13;;;3.22;;
63784;SDS011;49927;48.146;11.420;2023-11-21T01:36:46;12.27;;;3.28;;
63784;SDS011;49927;48.146;11.420;2023-11-21T01:39:13;11.70;;;3.15;;
63784;SDS011;49927;48.146;11.420;2023-11-21T01:41:39;8.93;;;2.42;;
63784;SDS011;49927;48.146;11.420;2023-11-21T01:44:06;9.90;;;3.00;;
63784;SDS011;49927;48.146;11.420;2023-11-21T01:46:33;10.98;;;3.30;;
63784;SDS011;49927;48.146;11.420;2023-11-21T01:49:00;8.43;;;3.30;;
63784;SDS011;49927;48.146;11.420;2023-11-21T01:51:28;11.55;;;3.42;;
63784;SDS011;49927;48.146;11.420;2023-11-21T01:53:55;11.77;;;3.15;;
63784;SDS011;49927;48.146;11.420;2023-11-21T01:56:22;9.20;;;2.90;;
63784;SDS011;49927;48.146;11.420;2023-11-21T01:58:48;13.85;;;3.38;;
63784;SDS011;49927;48.146;11.420;2023-11-21T02:01:15;9.88;;;3.28;;
63784;SDS011;49927;48.146;11.420;2023-11-21T02:03:42;8.93;;;3.17;;
63784;SDS011;49927;48.146;11.420;2023-11-21T02:06:09;8.02;;;2.58;;
63784;SDS011;49927;48.146;11.420;2023-11-21T02:08:37;6.10;;;2.50;;
63784;SDS011;49927;48.146;11.420;2023-11-21T02:11:04;10.05;;;2.72;;
63784;SDS011;49927;48.146;11.420;2023-11-21T02:13:31;9.05;;;2.45;;
63784;SDS011;49927;48.146;11.420;2023-11-21T02:15:57;4.90;;;2.08;;
63784;SDS011;49927;48.146;11.420;2023-11-21T02:18:24;8.63;;;2.45;;
63784;SDS011;49927;48.146;11.420;2023-11-21T02:20:51;10.00;;;2.28;;
63784;SDS011;49927;48.146;11.420;2023-11-21T02:23:19;10.30;;;2.72;;
63784;SDS011;49927;48.146;11.420;2023-11-21T02:25:46;7.13;;;1.98;;
63784;SDS011;49927;48.146;11.420;2023-11-21T02:28:13;5.65;;;1.92;;
63784;SDS011;49927;48.146;11.420;2023-11-21T02:30:39;8.25;;;2.17;;
63784;SDS011;49927;48.146;11.420;2023-11-21T02:33:06;8.63;;;2.30;;
63784;SDS011;49927;48.146;11.420;2023-11-21T02:35:33;5.77;;;2.00;;
63784;SDS011;49927;48.146;11.420;2023-11-21T02:38:00;7.90;;;2.10;;
63784;SDS011;49927;48.146;11.420;2023-11-21T02:40:28;9.70;;;2.30;;
63784;SDS011;49927;48.146;11.420;2023-11-21T02:42:56;6.07;;;2.30;;
63784;SDS011;49927;48.146;11.420;2023-11-21T02:45:22;7.53;;;2.10;;
63784;SDS011;49927;48.146;11.420;2023-11-21T02:47:49;10.13;;;2.47;;
63784;SDS011;49927;48.146;11.420;2023-11-21T02:50:16;7.63;;;2.22;;
63784;SDS011;49927;48.146;11.420;2023-11-21T02:52:43;6.70;;;2.10;;
63784;SDS011;49927;48.146;11.420;2023-11-21T02:55:10;8.77;;;2.50;;
63784;SDS011;49927;48.146;11.420;2023-11-21T02:57:38;5.95;;;2.30;;
63784;SDS011;49927;48.146;11.420;2023-11-21T03:00:05;10.90;;;2.65;;
63784;SDS011;49927;48.146;11.420;2023-11-21T03:02:33;11.13;;;2.88;;
63784;SDS011;49927;48.146;11.420;2023-11-21T03:05:00;9.63;;;2.93;;
63784;SDS011;49927;48.146;11.420;2023-11-21T03:07:26;11.80;;;3.20;;
63784;SDS011;49927;48.146;11.420;2023-11-21T03:09:53;11.82;;;3.17;;
63784;SDS011;49927;48.146;11.420;2023-11-21T03:12:20;10.40;;;2.90;;
63784;SDS011;49927;48.146;11.420;2023-11-21T03:14:48;14.65;;;3.08;;
63784;SDS011;49927;48.146;11.420;2023-11-21T03:17:15;10.60;;;3.58;;
63784;SDS011;49927;48.146;11.420;2023-11-21T03:19:42;8.95;;;2.47;;
63784;SDS011;49927;48.146;11.420;2023-11-21T03:22:08;9.80;;;2.85;;
63784;SDS011;49927;48.146;11.420;2023-11-21T03:24:35;9.60;;;2.58;;
63784;SDS011;49927;48.146;11.420;2023-11-21T03:27:02;8.00;;;2.50;;
63784;SDS011;49927;48.146;11.420;2023-11-21T03:29:29;9.13;;;2.23;;
63784;SDS011;49927;48.146;11.420;2023-11-21T03:31:57;8.07;;;2.50;;
63784;SDS011;49927;48.146;11.420;2023-11-21T03:34:24;8.20;;;2.40;;
63784;SDS011;49927;48.146;11.420;2023-11-21T03:36:51;6.35;;;1.90;;
63784;SDS011;49927;48.146;11.420;2023-11-21T03:39:19;4.57;;;1.60;;
63784;SDS011;49927;48.146;11.420;2023-11-21T03:41:46;6.00;;;1.58;;
63784;SDS011;49927;48.146;11.420;2023-11-21T03:44:13;4.88;;;1.40;;
63784;SDS011;49927;48.146;11.420;2023-11-21T03:46:40;4.55;;;1.50;;
63784;SDS011;49927;48.146;11.420;2023-11-21T03:49:08;5.82;;;1.60;;
63784;SDS011;49927;48.146;11.420;2023-11-21T03:51:34;3.28;;;1.23;;
63784;SDS011;49927;48.146;11.420;2023-11-21T03:54:01;4.80;;;1.20;;
63784;SDS011;49927;48.146;11.420;2023-11-21T03:56:28;6.20;;;1.40;;
63784;SDS011;49927;48.146;11.420;2023-11-21T03:58:55;7.63;;;1.65;;
63784;SDS011;49927;48.146;11.420;2023-11-21T04:01:22;4.22;;;1.15;;
63784;SDS011;49927;48.146;11.420;2023-11-21T04:03:49;3.78;;;1.50;;
63784;SDS011;49927;48.146;11.420;2023-11-21T04:06:17;4.82;;;1.50;;
63784;SDS011;49927;48.146;11.420;2023-11-21T04:08:44;4.53;;;1.33;;
63784;SDS011;49927;48.146;11.420;2023-11-21T04:11:11;5.95;;;1.42;;
63784;SDS011;49927;48.146;11.420;2023-11-21T04:13:38;7.10;;;1.43;;
63784;SDS011;49927;48.146;11.420;2023-11-21T04:16:05;4.05;;;1.40;;
63784;SDS011;49927;48.146;11.420;2023-11-21T04:18:33;6.63;;;1.95;;
63784;SDS011;49927;48.146;11.420;2023-11-21T04:21:00;3.38;;;1.08;;
63784;SDS011;49927;48.146;11.420;2023-11-21T04:23:28;3.50;;;1.30;;
63784;SDS011;49927;48.146;11.420;2023-11-21T04:25:55;2.97;;;1.08;;
63784;SDS011;49927;48.146;11.420;2023-11-21T04:28:22;4.20;;;1.38;;
63784;SDS011;49927;48.146;11.420;2023-11-21T04:30:49;4.57;;;1.27;;
63784;SDS011;49927;48.146;11.420;2023-11-21T04:33:16;3.85;;;1.40;;
63784;SDS011;49927;48.146;11.420;2023-11-21T04:35:43;3.58;;;1.42;;
63784;SDS011;49927;48.146;11.420;2023-11-21T04:38:09;2.95;;;1.33;;
63784;SDS011;49927;48.146;11.420;2023-11-21T04:40:37;4.97;;;1.48;;
63784;SDS011;49927;48.146;11.420;2023-11-21T04:43:04;4.72;;;1.50;;
63784;SDS011;49927;48.146;11.420;2023-11-21T04:45:31;5.85;;;1.90;;
63784;SDS011;49927;48.146;11.420;2023-11-21T04:47:58;5.75;;;1.70;;
63784;SDS011;49927;48.146;11.420;2023-11-21T04:50:25;7.85;;;1.52;;
63784;SDS011;49927;48.146;11.420;2023-11-21T04:52:51;5.38;;;1.77;;
63784;SDS011;49927;48.146;11.420;2023-11-21T04:55:18;3.85;;;1.77;;
63784;SDS011;49927;48.146;11.420;2023-11-21T04:57:46;4.55;;;1.60;;
63784;SDS011;49927;48.146;11.420;2023-11-21T05:00:13;5.68;;;1.80;;
63784;SDS011;49927;48.146;11.420;2023-11-21T05:02:40;5.53;;;1.75;;
63784;SDS011;49927;48.146;11.420;2023-11-21T05:05:07;6.82;;;2.40;;
63784;SDS011;49927;48.146;11.420;2023-11-21T05:07:34;6.70;;;1.85;;
63784;SDS011;49927;48.146;11.420;2023-11-21T05:10:02;7.10;;;2.10;;
63784;SDS011;49927;48.146;11.420;2023-11-21T05:12:30;4.45;;;1.88;;
63784;SDS011;49927;48.146;11.420;2023-11-21T05:14:59;4.23;;;1.50;;
63784;SDS011;49927;48.146;11.420;2023-11-21T05:17:25;5.25;;;1.63;;
63784;SDS011;49927;48.146;11.420;2023-11-21T05:19:52;6.28;;;2.60;;
63784;SDS011;49927;48.146;11.420;2023-11-21T05:22:19;5.20;;;1.60;;
63784;SDS011;49927;48.146;11.420;2023-11-21T05:24:46;3.92;;;1.20;;
63784;SDS011;49927;48.146;11.420;2023-11-21T05:27:13;2.75;;;1.20;;
63784;SDS011;49927;48.146;11.420;2023-11-21T05:29:39;4.88;;;1.42;;
63784;SDS011;49927;48.146;11.420;2023-11-21T05:32:07;2.58;;;1.23;;
63784;SDS011;49927;48.146;11.420;2023-11-21T05:34:34;3.15;;;1.20;;
63784;SDS011;49927;48.146;11.420;2023-11-21T05:37:01;5.07;;;1.20;;
63784;SDS011;49927;48.146;11.420;2023-11-21T05:39:28;4.38;;;1.55;;
63784;SDS011;49927;48.146;11.420;2023-11-21T05:41:54;2.25;;;1.20;;
63784;SDS011;49927;48.146;11.420;2023-11-21T05:44:21;2.13;;;1.10;;
63784;SDS011;49927;48.146;11.420;2023-11-21T05:46:48;4.15;;;1.15;;
63784;SDS011;49927;48.146;11.420;2023-11-21T05:49:16;2.58;;;1.10;;
63784;SDS011;49927;48.146;11.420;2023-11-21T05:51:43;2.47;;;1.00;;
63784;SDS011;49927;48.146;11.420;2023-11-21T05:54:10;3.47;;;1.20;;
63784;SDS011;49927;48.146;11.420;2023-11-21T05:56:36;2.60;;;1.20;;
63784;SDS011;49927;48.146;11.420;2023-11-21T05:59:03;3.10;;;1.20;;
63784;SDS011;49927;48.146;11.420;2023-11-21T06:01:30;3.70;;;1.38;;
63784;SDS011;49927;48.146;11.420;2023-11-21T06:03:57;3.42;;;1.00;;
63784;SDS011;49927;48.146;11.420;2023-11-21T06:06:25;4.82;;;1.20;;
63784;SDS011;49927;48.146;11.420;2023-11-21T06:08:52;4.00;;;1.42;;
63784;SDS011;49927;48.146;11.420;2023-11-21T06:11:18;2.55;;;1.13;;
63784;SDS011;49927;48.146;11.420;2023-11-21T06:13:45;3.50;;;1.40;;
63784;SDS011;49927;48.146;11.420;2023-11-21T06:16:12;4.18;;;1.33;;
63784;SDS011;49927;48.146;11.420;2023-11-21T06:18:39;2.85;;;1.50;;
63784;SDS011;49927;48.146;11.420;2023-11-21T06:21:06;3.67;;;1.00;;
63784;SDS011;49927;48.146;11.420;2023-11-21T06:23:37;3.60;;;1.27;;
63784;SDS011;49927;48.146;11.420;2023-11-21T06:26:04;1.83;;;0.90;;
63784;SDS011;49927;48.146;11.420;2023-11-21T06:28:31;3.20;;;1.20;;
63784;SDS011;49927;48.146;11.420;2023-11-21T06:30:58;3.17;;;1.33;;
63784;SDS011;49927;48.146;11.420;2023-11-21T06:33:25;4.22;;;1.58;;
63784;SDS011;49927;48.146;11.420;2023-11-21T06:35:51;3.40;;;1.00;;
63784;SDS011;49927;48.146;11.420;2023-11-21T06:38:18;2.65;;;1.00;;
63784;SDS011;49927;48.146;11.420;2023-11-21T06:40:46;4.45;;;1.50;;
63784;SDS011;49927;48.146;11.420;2023-11-21T06:43:13;3.15;;;1.52;;
63784;SDS011;49927;48.146;11.420;2023-11-21T06:45:40;3.88;;;1.42;;
63784;SDS011;49927;48.146;11.420;2023-11-21T06:48:06;3.17;;;1.40;;
63784;SDS011;49927;48.146;11.420;2023-11-21T06:50:35;2.97;;;1.95;;
63784;SDS011;49927;48.146;11.420;2023-11-21T06:53:01;2.72;;;1.80;;
63784;SDS011;49927;48.146;11.420;2023-11-21T06:55:28;3.85;;;1.20;;
63784;SDS011;49927;48.146;11.420;2023-11-21T06:57:56;3.95;;;1.10;;
63784;SDS011;49927;48.146;11.420;2023-11-21T07:00:23;3.13;;;1.02;;
63784;SDS011;49927;48.146;11.420;2023-11-21T07:02:50;2.87;;;1.20;;
63784;SDS011;49927;48.146;11.420;2023-11-21T07:05:17;2.40;;;1.05;;
63784;SDS011;49927;48.146;11.420;2023-11-21T07:07:44;5.40;;;1.50;;
63784;SDS011;49927;48.146;11.420;2023-11-21T07:10:10;2.38;;;1.00;;
63784;SDS011;49927;48.146;11.420;2023-11-21T07:12:37;4.68;;;1.27;;
63784;SDS011;49927;48.146;11.420;2023-11-21T07:15:06;4.15;;;1.40;;
63784;SDS011;49927;48.146;11.420;2023-11-21T07:17:34;5.30;;;1.10;;
63784;SDS011;49927;48.146;11.420;2023-11-21T07:20:03;1.40;;;1.10;;
63784;SDS011;49927;48.146;11.420;2023-11-21T07:22:31;2.78;;;1.08;;
63784;SDS011;49927;48.146;11.420;2023-11-21T07:24:58;2.58;;;1.00;;
63784;SDS011;49927;48.146;11.420;2023-11-21T07:27:24;2.78;;;1.20;;
63784;SDS011;49927;48.146;11.420;2023-11-21T07:29:51;2.55;;;0.90;;
63784;SDS011;49927;48.146;11.420;2023-11-21T07:32:20;3.65;;;1.27;;
63784;SDS011;49927;48.146;11.420;2023-11-21T07:34:46;1.58;;;0.90;;
63784;SDS011;49927;48.146;11.420;2023-11-21T07:37:13;4.03;;;1.00;;
63784;SDS011;49927;48.146;11.420;2023-11-21T07:39:40;3.22;;;1.00;;
63784;SDS011;49927;48.146;11.420;2023-11-21T07:42:07;5.05;;;1.70;;
63784;SDS011;49927;48.146;11.420;2023-11-21T07:44:34;1.90;;;0.90;;
63784;SDS011;49927;48.146;11.420;2023-11-21T07:47:01;1.83;;;0.70;;
63784;SDS011;49927;48.146;11.420;2023-11-21T07:49:29;3.90;;;1.10;;
63784;SDS011;49927;48.146;11.420;2023-11-21T07:51:57;3.35;;;0.95;;
63784;SDS011;49927;48.146;11.420;2023-11-21T07:54:24;4.07;;;1.00;;
63784;SDS011;49927;48.146;11.420;2023-11-21T07:56:50;3.40;;;1.13;;
63784;SDS011;49927;48.146;11.420;2023-11-21T07:59:17;2.72;;;0.82;;
63784;SDS011;49927;48.146;11.420;2023-11-21T08:01:44;4.88;;;1.30;;
63784;SDS011;49927;48.146;11.420;2023-11-21T08:04:11;3.85;;;1.35;;
63784;SDS011;49927;48.146;11.420;2023-11-21T08:06:39;1.92;;;0.73;;
63784;SDS011;49927;48.146;11.420;2023-11-21T08:09:06;2.13;;;1.20;;
63784;SDS011;49927;48.146;11.420;2023-11-21T08:11:32;3.17;;;1.10;;
63784;SDS011;49927;48.146;11.420;2023-11-21T08:13:59;3.00;;;1.03;;
63784;SDS011;49927;48.146;11.420;2023-11-21T08:16:26;5.05;;;1.17;;
63784;SDS011;49927;48.146;11.420;2023-11-21T08:18:53;3.22;;;1.05;;
63784;SDS011;49927;48.146;11.420;2023-11-21T08:21:20;1.85;;;1.10;;
63784;SDS011;49927;48.146;11.420;2023-11-21T08:23:48;2.90;;;0.95;;
63784;SDS011;49927;48.146;11.420;2023-11-21T08:26:15;3.13;;;1.20;;
63784;SDS011;49927;48.146;11.420;2023-11-21T08:28:42;2.78;;;1.10;;
63784;SDS011;49927;48.146;11.420;2023-11-21T08:31:09;2.08;;;0.85;;
63784;SDS011;49927;48.146;11.420;2023-11-21T08:33:39;4.00;;;1.20;;
63784;SDS011;49927;48.146;11.420;2023-11-21T08:36:06;2.92;;;0.88;;
63784;SDS011;49927;48.146;11.420;2023-11-21T08:38:34;3.85;;;1.20;;
63784;SDS011;49927;48.146;11.420;2023-11-21T08:41:03;3.80;;;1.20;;
63784;SDS011;49927;48.146;11.420;2023-11-21T08:43:31;2.50;;;1.05;;
63784;SDS011;49927;48.146;11.420;2023-11-21T08:45:58;7.03;;;1.38;;
63784;SDS011;49927;48.146;11.420;2023-11-21T08:48:25;4.35;;;1.17;;
63784;SDS011;49927;48.146;11.420;2023-11-21T08:50:51;4.75;;;1.25;;
63784;SDS011;49927;48.146;11.420;2023-11-21T08:53:18;5.43;;;1.63;;
63784;SDS011;49927;48.146;11.420;2023-11-21T08:55:45;4.65;;;1.60;;
63784;SDS011;49927;48.146;11.420;2023-11-21T08:58:13;4.70;;;2.65;;
63784;SDS011;49927;48.146;11.420;2023-11-21T09:00:40;5.22;;;1.63;;
63784;SDS011;49927;48.146;11.420;2023-11-21T09:03:06;5.93;;;1.80;;
63784;SDS011;49927;48.146;11.420;2023-11-21T09:05:33;2.88;;;1.42;;
63784;SDS011;49927;48.146;11.420;2023-11-21T09:08:00;3.42;;;1.42;;
63784;SDS011;49927;48.146;11.420;2023-11-21T09:10:27;3.47;;;1.60;;
63784;SDS011;49927;48.146;11.420;2023-11-21T09:12:54;8.27;;;1.50;;
63784;SDS011;49927;48.146;11.420;2023-11-21T09:15:22;3.00;;;1.52;;
63784;SDS011;49927;48.146;11.420;2023-11-21T09:17:49;4.47;;;1.23;;
63784;SDS011;49927;48.146;11.420;2023-11-21T09:20:16;2.58;;;1.13;;
63784;SDS011;49927;48.146;11.420;2023-11-21T09:22:42;2.83;;;1.10;;
63784;SDS011;49927;48.146;11.420;2023-11-21T09:25:09;3.10;;;1.23;;
63784;SDS011;49927;48.146;11.420;2023-11-21T09:27:36;3.75;;;1.10;;
63784;SDS011;49927;48.146;11.420;2023-11-21T09:30:03;3.17;;;1.00;;
63784;SDS011;49927;48.146;11.420;2023-11-21T09:32:32;4.55;;;1.33;;
63784;SDS011;49927;48.146;11.420;2023-11-21T09:34:59;3.97;;;1.45;;
63784;SDS011;49927;48.146;11.420;2023-11-21T09:37:26;4.47;;;1.35;;
63784;SDS011;49927;48.146;11.420;2023-11-21T09:39:52;4.77;;;1.60;;
63784;SDS011;49927;48.146;11.420;2023-11-21T09:42:21;4.63;;;1.17;;
63784;SDS011;49927;48.146;11.420;2023-11-21T09:44:51;2.53;;;1.17;;
63784;SDS011;49927;48.146;11.420;2023-11-21T09:47:24;4.28;;;1.20;;
63784;SDS011;49927;48.146;11.420;2023-11-21T09:49:52;1.92;;;1.00;;
63784;SDS011;49927;48.146;11.420;2023-11-21T09:52:22;3.20;;;1.40;;
63784;SDS011;49927;48.146;11.420;2023-11-21T09:54:50;5.88;;;1.20;;
63784;SDS011;49927;48.146;11.420;2023-11-21T09:57:17;2.75;;;1.20;;
63784;SDS011;49927;48.146;11.420;2023-11-21T09:59:44;4.70;;;1.27;;
63784;SDS011;49927;48.146;11.420;2023-11-21T10:02:11;3.95;;;1.08;;
63784;SDS011;49927;48.146;11.420;2023-11-21T10:04:38;3.90;;;1.35;;
63784;SDS011;49927;48.146;11.420;2023-11-21T10:07:06;3.88;;;1.50;;
63784;SDS011;49927;48.146;11.420;2023-11-21T10:09:33;8.73;;;1.80;;
63784;SDS011;49927;48.146;11.420;2023-11-21T10:12:00;4.68;;;1.50;;
63784;SDS011;49927;48.146;11.420;2023-11-21T10:14:28;4.57;;;1.37;;
63784;SDS011;49927;48.146;11.420;2023-11-21T10:16:55;3.53;;;1.30;;
63784;SDS011;49927;48.146;11.420;2023-11-21T10:19:22;4.60;;;1.20;;
63784;SDS011;49927;48.146;11.420;2023-11-21T10:21:49;2.63;;;1.35;;
63784;SDS011;49927;48.146;11.420;2023-11-21T10:24:18;2.67;;;1.25;;
63784;SDS011;49927;48.146;11.420;2023-11-21T10:26:45;2.78;;;1.35;;
63784;SDS011;49927;48.146;11.420;2023-11-21T10:29:19;3.88;;;1.23;;
63784;SDS011;49927;48.146;11.420;2023-11-21T10:31:46;3.28;;;1.67;;
63784;SDS011;49927;48.146;11.420;2023-11-21T10:34:16;3.50;;;1.60;;
63784;SDS011;49927;48.146;11.420;2023-11-21T10:36:44;5.38;;;1.30;;
63784;SDS011;49927;48.146;11.420;2023-11-21T10:39:13;4.13;;;1.13;;
63784;SDS011;49927;48.146;11.420;2023-11-21T10:41:43;2.67;;;1.35;;
63784;SDS011;49927;48.146;11.420;2023-11-21T10:44:10;7.82;;;1.92;;
63784;SDS011;49927;48.146;11.420;2023-11-21T10:46:36;3.38;;;1.38;;
63784;SDS011;49927;48.146;11.420;2023-11-21T10:49:04;3.22;;;1.50;;
63784;SDS011;49927;48.146;11.420;2023-11-21T10:51:32;3.40;;;1.40;;
63784;SDS011;49927;48.146;11.420;2023-11-21T10:53:59;3.45;;;1.63;;
63784;SDS011;49927;48.146;11.420;2023-11-21T10:56:26;2.47;;;1.38;;
63784;SDS011;49927;48.146;11.420;2023-11-21T10:58:54;2.13;;;1.40;;
63784;SDS011;49927;48.146;11.420;2023-11-21T11:01:21;5.97;;;2.08;;
63784;SDS011;49927;48.146;11.420;2023-11-21T11:03:52;6.57;;;2.03;;
63784;SDS011;49927;48.146;11.420;2023-11-21T11:06:19;4.25;;;1.63;;
63784;SDS011;49927;48.146;11.420;2023-11-21T11:08:45;6.22;;;1.92;;
63784;SDS011;49927;48.146;11.420;2023-11-21T11:11:14;4.18;;;1.40;;
63784;SDS011;49927;48.146;11.420;2023-11-21T11:13:43;2.90;;;1.20;;
63784;SDS011;49927;48.146;11.420;2023-11-21T11:16:11;3.35;;;1.30;;
63784;SDS011;49927;48.146;11.420;2023-11-21T11:18:38;2.75;;;1.20;;
63784;SDS011;49927;48.146;11.420;2023-11-21T11:21:07;4.13;;;1.42;;
63784;SDS011;49927;48.146;11.420;2023-11-21T11:23:44;3.92;;;1.48;;
63784;SDS011;49927;48.146;11.420;2023-11-21T11:26:18;3.83;;;1.40;;
63784;SDS011;49927;48.146;11.420;2023-11-21T11:28:51;3.40;;;1.60;;
63784;SDS011;49927;48.146;11.420;2023-11-21T11:31:30;3.73;;;1.60;;
63784;SDS011;49927;48.146;11.420;2023-11-21T11:34:06;2.95;;;1.77;;
63784;SDS011;49927;48.146;11.420;2023-11-21T11:36:40;1.60;;;1.20;;
63784;SDS011;49927;48.146;11.420;2023-11-21T11:39:28;2.10;;;1.20;;
63784;SDS011;49927;48.146;11.420;2023-11-21T11:41:56;2.70;;;1.25;;
63784;SDS011;49927;48.146;11.420;2023-11-21T11:47:15;3.15;;;1.10;;
63784;SDS011;49927;48.146;11.420;2023-11-21T11:49:55;3.80;;;1.25;;
63784;SDS011;49927;48.146;11.420;2023-11-21T11:52:34;2.65;;;1.23;;
63784;SDS011;49927;48.146;11.420;2023-11-21T11:55:02;2.40;;;1.02;;
63784;SDS011;49927;48.146;11.420;2023-11-21T11:57:29;2.33;;;0.90;;
63784;SDS011;49927;48.146;11.420;2023-11-21T12:00:06;1.73;;;0.80;;
63784;SDS011;49927;48.146;11.420;2023-11-21T12:02:39;2.97;;;1.10;;
63784;SDS011;49927;48.146;11.420;2023-11-21T12:05:09;2.15;;;0.80;;
63784;SDS011;49927;48.146;11.420;2023-11-21T12:07:43;2.17;;;1.20;;
63784;SDS011;49927;48.146;11.420;2023-11-21T12:10:11;2.63;;;0.90;;
63784;SDS011;49927;48.146;11.420;2023-11-21T12:12:41;1.98;;;0.90;;
63784;SDS011;49927;48.146;11.420;2023-11-21T12:15:09;2.85;;;1.00;;
63784;SDS011;49927;48.146;11.420;2023-11-21T12:17:36;2.13;;;1.00;;
63784;SDS011;49927;48.146;11.420;2023-11-21T12:20:06;3.58;;;1.70;;
63784;SDS011;49927;48.146;11.420;2023-11-21T12:22:33;2.58;;;1.00;;
63784;SDS011;49927;48.146;11.420;2023-11-21T12:25:00;2.67;;;1.20;;
63784;SDS011;49927;48.146;11.420;2023-11-21T12:27:29;1.88;;;1.00;;
63784;SDS011;49927;48.146;11.420;2023-11-21T12:29:56;2.15;;;0.85;;
63784;SDS011;49927;48.146;11.420;2023-11-21T12:32:24;3.58;;;1.20;;
63784;SDS011;49927;48.146;11.420;2023-11-21T12:34:50;1.90;;;0.90;;
63784;SDS011;49927;48.146;11.420;2023-11-21T12:37:19;2.65;;;1.30;;
63784;SDS011;49927;48.146;11.420;2023-11-21T12:39:45;5.28;;;1.10;;
63784;SDS011;49927;48.146;11.420;2023-11-21T12:42:12;3.05;;;1.50;;
63784;SDS011;49927;48.146;11.420;2023-11-21T12:44:39;2.83;;;1.40;;
63784;SDS011;49927;48.146;11.420;2023-11-21T12:47:06;3.60;;;1.90;;
63784;SDS011;49927;48.146;11.420;2023-11-21T12:49:32;4.15;;;1.80;;
63784;SDS011;49927;48.146;11.420;2023-11-21T12:52:01;3.85;;;2.10;;
63784;SDS011;49927;48.146;11.420;2023-11-21T12:54:29;4.32;;;1.70;;
63784;SDS011;49927;48.146;11.420;2023-11-21T12:56:59;3.60;;;1.67;;
63784;SDS011;49927;48.146;11.420;2023-11-21T12:59:25;3.42;;;1.50;;
63784;SDS011;49927;48.146;11.420;2023-11-21T13:01:53;2.85;;;1.67;;
63784;SDS011;49927;48.146;11.420;2023-11-21T13:04:20;2.83;;;1.80;;
63784;SDS011;49927;48.146;11.420;2023-11-21T13:07:02;4.50;;;1.57;;
63784;SDS011;49927;48.146;11.420;2023-11-21T13:09:31;2.22;;;1.20;;
63784;SDS011;49927;48.146;11.420;2023-11-21T13:11:59;2.53;;;1.25;;
63784;SDS011;49927;48.146;11.420;2023-11-21T13:14:28;3.70;;;1.80;;
63784;SDS011;49927;48.146;11.420;2023-11-21T13:16:55;3.13;;;2.15;;
63784;SDS011;49927;48.146;11.420;2023-11-21T13:19:24;2.95;;;1.50;;
63784;SDS011;49927;48.146;11.420;2023-11-21T13:21:51;7.18;;;2.38;;
63784;SDS011;49927;48.146;11.420;2023-11-21T13:24:18;1.90;;;1.30;;
63784;SDS011;49927;48.146;11.420;2023-11-21T13:26:46;3.35;;;1.50;;
63784;SDS011;49927;48.146;11.420;2023-11-21T13:29:13;2.75;;;1.38;;
63784;SDS011;49927;48.146;11.420;2023-11-21T13:31:40;3.28;;;1.75;;
63784;SDS011;49927;48.146;11.420;2023-11-21T13:34:06;3.58;;;1.73;;
63784;SDS011;49927;48.146;11.420;2023-11-21T13:36:34;4.30;;;2.10;;
63784;SDS011;49927;48.146;11.420;2023-11-21T13:39:00;4.37;;;1.90;;
63784;SDS011;49927;48.146;11.420;2023-11-21T13:41:27;6.87;;;2.70;;
63784;SDS011;49927;48.146;11.420;2023-11-21T13:43:55;4.75;;;1.80;;
63784;SDS011;49927;48.146;11.420;2023-11-21T13:46:22;2.40;;;1.20;;
63784;SDS011;49927;48.146;11.420;2023-11-21T13:48:49;3.20;;;1.27;;
63784;SDS011;49927;48.146;11.420;2023-11-21T13:51:16;3.33;;;1.33;;
63784;SDS011;49927;48.146;11.420;2023-11-21T13:53:43;3.47;;;1.48;;
63784;SDS011;49927;48.146;11.420;2023-11-21T13:56:10;2.22;;;1.27;;
63784;SDS011;49927;48.146;11.420;2023-11-21T13:58:37;2.08;;;1.25;;
63784;SDS011;49927;48.146;11.420;2023-11-21T14:01:05;4.70;;;1.60;;
63784;SDS011;49927;48.146;11.420;2023-11-21T14:03:32;2.58;;;1.23;;
63784;SDS011;49927;48.146;11.420;2023-11-21T14:05:59;0.40;;;0.35;;
63784;SDS011;49927;48.146;11.420;2023-11-21T14:08:26;2.33;;;1.08;;
63784;SDS011;49927;48.146;11.420;2023-11-21T14:10:53;1.50;;;0.75;;
63784;SDS011;49927;48.146;11.420;2023-11-21T14:13:19;1.65;;;1.00;;
63784;SDS011;49927;48.146;11.420;2023-11-21T14:15:46;1.58;;;1.00;;
63784;SDS011;49927;48.146;11.420;2023-11-21T14:18:14;3.70;;;1.42;;
63784;SDS011;49927;48.146;11.420;2023-11-21T14:20:41;4.63;;;1.80;;
63784;SDS011;49927;48.146;11.420;2023-11-21T14:23:08;5.23;;;2.20;;
63784;SDS011;49927;48.146;11.420;2023-11-21T14:25:35;2.97;;;1.40;;
63784;SDS011;49927;48.146;11.420;2023-11-21T14:28:03;2.47;;;1.30;;
63784;SDS011;49927;48.146;11.420;2023-11-21T14:30:30;3.25;;;1.63;;
63784;SDS011;49927;48.146;11.420;2023-11-21T14:32:57;15.07;;;4.95;;
63784;SDS011;49927;48.146;11.420;2023-11-21T14:35:25;20.77;;;6.73;;
63784;SDS011;49927;48.146;11.420;2023-11-21T14:37:52;43.03;;;24.20;;